Weldon, CA (93283)

8:39 AM PST on December 28, 2014 (GMT -0800)
HADS ISABELLA WEATHER STATION NEAR LA CA US USARMY-COE | Change Station
CLOSE
Current Station
Personal Weather Station
Location: Lake Isabella, CA
Elevation: 2680 ft
Nearby Weather Stations

Elev 2680 ft 35.65 °N, 118.48 °W | Updated 54 minutes ago

Partly Cloudy
Partly Cloudy
31 °F
Feels Like 31 °F
N
1
Wind Variable Wind from SE
Gusts 0.0 mph

Today
High -- | Low -- °F
--% Chance of Precip.
Yesterday
High -- | Low -- °F
Precip. -- in
7:01 AM 4:47 PM
Waxing Crescent, 49% visible
Pressure 30.35 in
Visibility 10.0 miles
Clouds Clear
Windchill 31 °F
Dew Point 25 °F
Humidity 79%
Rainfall 0.00 in
Snow Depth Not available.
UV out of 12
Pollen 5.60 out of 12
Air Quality Not available.
Flu Activity Not available.
METAR KNID 281556Z AUTO 00000KT 10SM CLR M02/M06 A3029 RMK AO2 SLP277 T10171061 $

More Conditions Fewer Conditions

Pressure 30.35 in
Visibility 10.0 miles
Clouds Clear
Windchill 31 °F
Dew Point 25 °F
Humidity 79%
Rainfall 0.00 in
Snow Depth Not available.
UV out of 12
Pollen 5.60 out of 12
Air Quality Not available.
Flu Activity Not available.
METAR KNID 281556Z AUTO 00000KT 10SM CLR M02/M06 A3029 RMK AO2 SLP277 T10171061 $

More Conditions Fewer Conditions

10-Day Weather Forecast

Almanac

Astronomy

Dec. 28, 2014 Rise Set
Actual Time
Civil Twilight
Nautical Twilight
Astronomical Twilight
Moon
Length of Visible Light
Length of Day
Tomorrow will be .
, % of the Moon is Illuminated

Today's Extremes

State Highs State Lows

Community

WunderPhotos

Upload Photos

1,781,329 photos uploaded!

WunderBlogs® & News

Nearby

Air Quality

  Air Quality AQ Index Pollutant
Not available.

Snow Depth

Station Depth Elevation

Earthquake Activity

City Distance Mag. Time & Date
Minimum magnitude displayed is 2.5.

Coastal Water Temperatures

Place Temperature

Nearby Weather Stations